createdAt,value
2023-04-01T00:00:24.156Z,8.45
2023-04-01T00:05:26.252Z,9.52
2023-04-01T00:10:27.716Z,10.40
2023-04-01T00:15:29.232Z,9.80
2023-04-01T00:20:30.966Z,9.85
2023-04-01T00:25:32.823Z,9.52
2023-04-01T00:30:34.567Z,8.60
2023-04-01T00:35:36.360Z,9.00
2023-04-01T00:40:39.943Z,9.32
2023-04-01T00:45:43.615Z,8.50
2023-04-01T00:50:50.222Z,7.75
2023-04-01T00:55:58.210Z,9.90
2023-04-01T01:00:59.797Z,9.05
2023-04-01T01:06:36.097Z,9.35
2023-04-01T01:11:49.135Z,10.38
2023-04-01T01:16:56.702Z,9.85
2023-04-01T01:22:21.276Z,10.35
2023-04-01T01:27:22.742Z,9.27
2023-04-01T01:33:00.510Z,7.95
2023-04-01T01:38:13.769Z,9.23
2023-04-01T01:43:17.284Z,8.90
2023-04-01T01:48:18.773Z,10.85
2023-04-01T01:53:20.442Z,11.23
2023-04-01T01:58:41.262Z,11.95
2023-04-01T02:03:42.905Z,12.43
2023-04-01T02:08:48.535Z,12.10
2023-04-01T02:13:54.842Z,12.63
2023-04-01T02:18:56.540Z,11.95
2023-04-01T02:23:58.004Z,13.25
2023-04-01T02:28:59.468Z,13.93
2023-04-01T02:34:00.917Z,13.23
2023-04-01T02:39:03.445Z,12.95
2023-04-01T02:44:05.348Z,12.95
2023-04-01T02:49:06.873Z,11.55
2023-04-01T02:54:08.342Z,10.80
2023-04-01T02:59:09.842Z,10.90
2023-04-01T03:04:11.436Z,9.25
2023-04-01T03:09:12.906Z,9.00
2023-04-01T03:14:14.352Z,6.35
2023-04-01T03:19:15.926Z,5.75
2023-04-01T03:24:17.461Z,4.35
2023-04-01T03:29:18.929Z,4.65
2023-04-01T03:34:20.433Z,4.18
2023-04-01T03:39:21.901Z,3.70
2023-04-01T03:44:23.376Z,3.67
2023-04-01T03:49:24.864Z,5.13
2023-04-01T03:54:27.555Z,4.50
2023-04-01T03:59:29.001Z,3.92
2023-04-01T04:04:31.055Z,3.55
2023-04-01T04:09:32.679Z,3.92
2023-04-01T04:14:34.142Z,3.53
2023-04-01T04:19:35.615Z,3.85
2023-04-01T04:24:37.181Z,2.83
2023-04-01T04:29:38.633Z,2.83
2023-04-01T04:34:40.189Z,2.65
2023-04-01T04:39:41.647Z,2.88
2023-04-01T04:44:43.108Z,2.17
2023-04-01T04:49:44.610Z,1.90
2023-04-01T04:54:46.332Z,1.83
2023-04-01T04:59:47.795Z,1.60
2023-04-01T05:04:49.240Z,1.73
2023-04-01T05:09:50.890Z,1.38
2023-04-01T05:14:52.381Z,1.65
2023-04-01T05:19:53.924Z,1.65
2023-04-01T05:24:55.396Z,1.75
2023-04-01T05:29:57.359Z,1.17
2023-04-01T05:34:58.811Z,1.63
2023-04-01T05:40:00.401Z,1.50
2023-04-01T05:45:01.866Z,1.90
2023-04-01T05:50:03.352Z,1.48
2023-04-01T05:55:05.505Z,1.35
2023-04-01T06:00:07.689Z,2.20
2023-04-01T06:05:13.467Z,1.73
2023-04-01T06:10:18.737Z,1.45
2023-04-01T06:15:37.229Z,1.90
2023-04-01T06:21:12.481Z,2.70
2023-04-01T06:26:16.490Z,1.65
2023-04-01T06:31:35.056Z,1.60
2023-04-01T06:36:58.216Z,1.35
2023-04-01T06:42:21.015Z,1.95
2023-04-01T06:47:24.944Z,1.60
2023-04-01T06:52:40.910Z,1.27
2023-04-01T06:57:43.669Z,1.38
2023-04-01T07:02:54.636Z,1.70
2023-04-01T07:07:57.656Z,1.30
2023-04-01T07:12:59.765Z,1.52
2023-04-01T07:18:04.239Z,1.60
2023-04-01T07:23:08.081Z,1.45
2023-04-01T07:28:14.971Z,1.10
2023-04-01T07:33:20.886Z,1.35
2023-04-01T07:38:31.257Z,1.27
2023-04-01T07:43:51.101Z,1.33
2023-04-01T07:49:14.765Z,1.77
2023-04-01T07:54:37.562Z,1.23
2023-04-01T07:59:52.853Z,1.65
2023-04-01T08:05:00.194Z,1.40
2023-04-01T08:10:13.525Z,1.60
2023-04-01T08:15:23.028Z,1.13
2023-04-01T08:20:56.693Z,1.63
2023-04-01T08:26:03.689Z,1.23
2023-04-01T08:31:07.064Z,2.28
2023-04-01T08:36:14.921Z,1.77
2023-04-01T08:42:02.376Z,1.58
2023-04-01T08:47:34.969Z,2.08
2023-04-01T08:52:37.559Z,2.42
2023-04-01T08:58:02.547Z,1.67
2023-04-01T09:03:19.899Z,1.75
2023-04-01T09:08:42.494Z,1.45
2023-04-01T09:19:11.117Z,1.70
2023-04-01T09:24:31.479Z,1.48
2023-04-01T09:29:56.970Z,1.42
2023-04-01T09:35:06.736Z,1.80
2023-04-01T09:40:26.423Z,2.28
2023-04-01T09:45:52.522Z,1.98
2023-04-01T09:51:12.999Z,2.70
2023-04-01T09:56:40.867Z,1.67
2023-04-01T10:02:18.812Z,2.20
2023-04-01T10:07:32.020Z,2.10
2023-04-01T10:12:54.130Z,1.90
2023-04-01T10:18:10.682Z,3.10
2023-04-01T10:23:33.633Z,3.97
2023-04-01T10:28:49.349Z,2.50
2023-04-01T10:34:06.922Z,2.47
2023-04-01T10:39:26.113Z,2.70
2023-04-01T10:44:57.525Z,2.80
2023-04-01T10:50:21.040Z,2.90
2023-04-01T10:55:53.153Z,3.03
2023-04-01T11:01:10.300Z,3.67
2023-04-01T11:06:55.608Z,3.72
2023-04-01T11:12:20.823Z,4.03
2023-04-01T11:18:03.368Z,4.72
2023-04-01T11:23:08.825Z,3.70
2023-04-01T11:28:25.401Z,4.22
2023-04-01T11:33:32.887Z,3.75
2023-04-01T11:39:01.409Z,4.95
2023-04-01T11:44:18.899Z,4.93
2023-04-01T11:49:33.035Z,4.63
2023-04-01T11:54:59.599Z,5.47
2023-04-01T12:00:24.736Z,6.78
2023-04-01T12:05:35.573Z,4.45
2023-04-01T12:11:06.518Z,4.95
2023-04-01T12:16:26.962Z,5.43
2023-04-01T12:21:33.624Z,3.97
2023-04-01T12:26:39.708Z,5.90
2023-04-01T12:31:59.341Z,4.93
2023-04-01T12:37:09.795Z,4.47
2023-04-01T12:42:36.976Z,4.88
2023-04-01T12:48:16.153Z,4.38
2023-04-01T12:53:35.714Z,3.30
2023-04-01T12:59:03.368Z,5.47
2023-04-01T13:04:24.348Z,5.25
2023-04-01T13:09:52.169Z,3.85
2023-04-01T13:15:11.864Z,4.45
2023-04-01T13:20:35.005Z,4.35
2023-04-01T13:26:13.683Z,4.15
2023-04-01T13:31:24.872Z,4.95
2023-04-01T13:36:34.403Z,3.85
2023-04-01T13:42:00.412Z,3.63
2023-04-01T13:47:39.222Z,4.00
2023-04-01T13:53:05.875Z,3.63
2023-04-01T13:58:21.215Z,3.72
2023-04-01T14:03:40.007Z,3.75
2023-04-01T14:08:56.929Z,2.97
2023-04-01T14:14:35.602Z,3.30
2023-04-01T14:19:54.661Z,3.17
2023-04-01T14:25:15.941Z,4.03
2023-04-01T14:30:21.569Z,2.92
2023-04-01T14:35:51.161Z,3.80
2023-04-01T14:41:21.554Z,4.60
2023-04-01T14:46:52.511Z,3.78
2023-04-01T14:51:54.037Z,2.90
2023-04-01T14:57:15.596Z,4.90
2023-04-01T15:02:52.055Z,3.38
2023-04-01T15:08:26.038Z,2.65
2023-04-01T15:13:30.846Z,3.15
2023-04-01T15:19:06.280Z,4.47
2023-04-01T15:29:43.342Z,3.13
2023-04-01T15:34:52.891Z,3.80
2023-04-01T15:40:16.669Z,3.22
2023-04-01T15:45:25.086Z,3.58
2023-04-01T15:50:32.353Z,3.40
2023-04-01T15:55:51.257Z,3.58
2023-04-01T16:01:34.253Z,4.10
2023-04-01T16:06:48.380Z,4.13
2023-04-01T16:12:28.862Z,3.30
2023-04-01T16:17:50.569Z,3.17
2023-04-01T16:23:03.399Z,2.38
2023-04-01T16:28:33.930Z,3.40
2023-04-01T16:33:49.165Z,4.05
2023-04-01T16:39:08.633Z,3.50
2023-04-01T16:44:26.145Z,3.25
2023-04-01T16:49:40.051Z,2.47
2023-04-01T16:54:45.673Z,2.97
2023-04-01T17:00:01.797Z,3.67
2023-04-01T17:10:30.430Z,2.35
2023-04-01T17:15:41.065Z,3.13
2023-04-01T17:20:54.982Z,3.47
2023-04-01T17:26:31.693Z,2.80
2023-04-01T17:31:51.933Z,2.42
2023-04-01T17:37:16.970Z,3.38
2023-04-01T17:42:38.719Z,4.18
2023-04-01T17:47:48.990Z,2.40
2023-04-01T17:53:13.088Z,2.38
2023-04-01T17:58:44.155Z,2.03
2023-04-01T18:04:09.098Z,2.35
2023-04-01T18:09:32.080Z,2.42
2023-04-01T18:14:48.903Z,2.97
2023-04-01T18:20:29.801Z,2.03
2023-04-01T18:25:37.075Z,2.05
2023-04-01T18:30:38.530Z,2.55
2023-04-01T18:35:50.323Z,3.33
2023-04-01T18:41:20.025Z,2.63
2023-04-01T18:46:41.059Z,1.90
2023-04-01T18:51:58.265Z,2.45
2023-04-01T18:57:05.117Z,3.05
2023-04-01T19:02:15.587Z,1.83
2023-04-01T19:07:43.293Z,1.98
2023-04-01T19:12:52.557Z,2.70
2023-04-01T19:18:41.949Z,2.15
2023-04-01T19:24:05.133Z,2.10
2023-04-01T19:29:18.018Z,2.03
2023-04-01T19:34:44.927Z,1.88
2023-04-01T19:40:03.183Z,2.00
2023-04-01T19:45:29.770Z,1.95
2023-04-01T19:50:51.468Z,3.25
2023-04-01T19:56:12.888Z,2.08
2023-04-01T20:01:29.643Z,2.40
2023-04-01T20:06:57.094Z,2.00
2023-04-01T20:12:23.653Z,1.70
2023-04-01T20:17:42.294Z,2.05
2023-04-01T20:22:46.514Z,2.10
2023-04-01T20:27:53.083Z,1.67
2023-04-01T20:33:02.684Z,1.77
2023-04-01T20:38:09.809Z,2.28
2023-04-01T20:43:31.277Z,1.70
2023-04-01T20:48:47.159Z,1.50
2023-04-01T20:54:06.722Z,1.70
2023-04-01T20:59:20.693Z,1.60
2023-04-01T21:04:28.972Z,2.47
2023-04-01T21:09:48.124Z,2.67
2023-04-01T21:15:01.219Z,1.65
2023-04-01T21:20:44.941Z,2.50
2023-04-01T21:26:06.250Z,1.75
2023-04-01T21:31:16.852Z,1.67
2023-04-01T21:36:21.047Z,1.83
2023-04-01T21:42:03.570Z,1.90
2023-04-01T21:47:30.832Z,2.08
2023-04-01T21:52:55.731Z,1.65
2023-04-01T21:58:31.037Z,1.73
2023-04-01T22:03:50.942Z,2.03
2023-04-01T22:09:10.594Z,1.40
2023-04-01T22:14:35.131Z,1.88
2023-04-01T22:19:47.417Z,1.70
2023-04-01T22:25:10.287Z,2.70
2023-04-01T22:30:24.460Z,1.75
2023-04-01T22:35:43.189Z,2.08
2023-04-01T22:40:59.377Z,1.23
2023-04-01T22:46:25.516Z,1.40
2023-04-01T22:51:46.861Z,1.88
2023-04-01T22:56:54.477Z,1.30
2023-04-01T23:01:59.026Z,1.65
2023-04-01T23:07:03.160Z,1.50
2023-04-01T23:12:06.362Z,2.38
2023-04-01T23:17:19.909Z,2.13
2023-04-01T23:22:32.486Z,1.83
2023-04-01T23:27:39.934Z,1.35
2023-04-01T23:32:41.399Z,2.00
2023-04-01T23:37:42.863Z,1.92
2023-04-01T23:42:44.399Z,1.48
2023-04-01T23:47:46.047Z,1.65
2023-04-01T23:52:55.535Z,1.67
2023-04-01T23:58:05.866Z,1.52
